Okanagan Landing, Canada
Current Conditions -  °F | °C
As of 11:15 PM on Saturday 25 Oct 2014 (Local Time) from CYLW Reporting Station
Overcast Overcast  
Wind Chill: 46°   Ceiling: 5500
Heat Index: 46°   Visibility: 9mi
Dew Point: 43°   Wind: 3mph
Humidity: 87%   Direction: 30°NNE
Pressure: 29.39"   Gusts: NA
Location:  50.23°N, 119.36°W
Report Text: CYLW 260615Z AUTO 03003KT 340V060 9SM OVC055 08/06 A2939 RMK SLP958 DENSITY ALT 1500FT
Loading
Personal Weather Stations






























Interactive Weather Map
Tropical Storm Tracking
New forecast layout! Learn more

10-Day Weather Forecast

Advertisements
Track Severe Weather on mobile